createdAt,value
2022-08-12T00:07:10.080Z,88.37
2022-08-12T00:17:32.333Z,86.57
2022-08-12T00:27:54.606Z,88.17
2022-08-12T00:38:15.742Z,84.33
2022-08-12T00:48:21.306Z,85.27
2022-08-12T00:58:28.669Z,89.17
2022-08-12T01:08:51.145Z,84.93
2022-08-12T01:18:57.402Z,86.30
2022-08-12T01:29:03.347Z,84.43
2022-08-12T01:39:06.898Z,84.63
2022-08-12T01:49:32.370Z,88.93
2022-08-12T01:59:59.276Z,85.00
2022-08-12T02:10:51.285Z,90.50
2022-08-12T02:21:03.152Z,85.33
2022-08-12T02:31:11.091Z,86.07
2022-08-12T02:41:17.120Z,83.47
2022-08-12T02:51:25.532Z,87.17
2022-08-12T03:01:34.329Z,87.43
2022-08-12T03:11:49.002Z,85.20
2022-08-12T03:22:09.227Z,84.70
2022-08-12T03:32:36.099Z,86.30
2022-08-12T03:42:43.036Z,87.17
2022-08-12T03:53:05.700Z,86.23
2022-08-12T04:03:31.641Z,84.13
2022-08-12T04:13:36.677Z,87.40
2022-08-12T04:23:46.357Z,87.13
2022-08-12T04:33:53.266Z,85.23
2022-08-12T04:44:02.002Z,88.93
2022-08-12T04:54:07.323Z,93.17
2022-08-12T05:04:11.673Z,95.83
2022-08-12T05:14:18.553Z,94.70
2022-08-12T05:24:21.921Z,93.37
2022-08-12T05:34:29.733Z,91.73
2022-08-12T05:44:33.101Z,94.37
2022-08-12T05:54:56.962Z,95.50
2022-08-12T06:05:02.642Z,93.40
2022-08-12T06:15:08.964Z,98.50
2022-08-12T06:25:17.565Z,102.57
2022-08-12T06:35:49.518Z,106.13
2022-08-12T06:45:49.712Z,106.67
2022-08-12T06:55:57.909Z,102.97
2022-08-12T07:06:05.119Z,104.87
2022-08-12T07:16:12.094Z,107.83
2022-08-12T07:26:19.776Z,105.40
2022-08-12T07:36:25.571Z,111.67
2022-08-12T07:46:32.254Z,111.17
2022-08-12T07:56:40.191Z,111.80
2022-08-12T08:06:44.837Z,112.43
2022-08-12T08:16:49.834Z,119.07
2022-08-12T08:26:56.642Z,121.13
2022-08-12T08:37:04.716Z,125.10
2022-08-12T08:47:13.590Z,119.85
2022-08-12T08:57:19.079Z,125.72
2022-08-12T09:07:51.991Z,126.57
2022-08-12T09:17:57.043Z,130.88
2022-08-12T09:28:05.232Z,129.80
2022-08-12T09:38:25.547Z,133.60
2022-08-12T09:48:35.238Z,128.18
2022-08-12T09:58:57.646Z,143.65
2022-08-12T10:09:02.852Z,142.52
2022-08-12T10:19:17.492Z,150.35
2022-08-12T10:30:03.171Z,137.52
2022-08-12T10:40:09.355Z,138.32
2022-08-12T10:50:35.828Z,139.10
2022-08-12T11:00:55.453Z,142.18
2022-08-12T11:11:13.269Z,142.48
2022-08-12T11:21:18.786Z,146.90
2022-08-12T11:31:22.106Z,159.38
2022-08-12T11:41:30.879Z,149.68
2022-08-12T11:51:36.521Z,192.00
2022-08-12T12:02:01.923Z,142.07
2022-08-12T12:12:08.738Z,147.32
2022-08-12T12:22:15.821Z,196.73
2022-08-12T12:32:29.231Z,160.40
2022-08-12T12:42:43.281Z,138.65
2022-08-12T12:52:57.725Z,136.85
2022-08-12T13:03:03.933Z,141.13
2022-08-12T13:14:09.714Z,136.43
2022-08-12T13:23:36.236Z,137.50
2022-08-12T13:34:32.131Z,130.65
2022-08-12T13:44:10.432Z,134.90
2022-08-12T13:54:14.269Z,125.82
2022-08-12T14:04:19.293Z,123.47
2022-08-12T14:14:23.581Z,122.23
2022-08-12T14:24:40.423Z,118.77
2022-08-12T14:34:44.312Z,117.97
2022-08-12T14:44:57.267Z,111.93
2022-08-12T15:06:04.809Z,115.20
2022-08-12T15:15:53.117Z,112.90
2022-08-12T15:26:02.657Z,114.63
2022-08-12T15:36:08.827Z,110.80
2022-08-12T15:46:15.883Z,109.07
2022-08-12T15:56:19.600Z,111.83
2022-08-12T16:16:58.439Z,110.43
2022-08-12T16:27:05.328Z,109.47
2022-08-12T16:37:09.495Z,110.27
2022-08-12T16:47:15.658Z,114.33
2022-08-12T16:57:34.846Z,125.30
2022-08-12T17:07:43.515Z,108.87
2022-08-12T17:17:47.421Z,109.33
2022-08-12T17:27:57.316Z,111.30
2022-08-12T17:38:04.168Z,107.30
2022-08-12T17:48:11.874Z,104.73
2022-08-12T17:58:35.682Z,111.17
2022-08-12T18:08:54.355Z,109.10
2022-08-12T18:19:02.035Z,103.13
2022-08-12T18:29:06.908Z,104.80
2022-08-12T18:39:10.320Z,104.07
2022-08-12T18:49:20.030Z,102.37
2022-08-12T19:00:00.998Z,102.47
2022-08-12T19:10:00.083Z,104.17
2022-08-12T19:20:11.293Z,107.23
2022-08-12T19:30:36.747Z,107.60
2022-08-12T19:40:42.982Z,102.87
2022-08-12T19:50:53.818Z,101.53
2022-08-12T20:00:57.226Z,103.33
2022-08-12T20:12:09.043Z,102.53
2022-08-12T20:21:25.562Z,103.70
2022-08-12T20:31:46.005Z,105.13
2022-08-12T20:41:58.930Z,107.47
2022-08-12T20:52:06.666Z,108.40
2022-08-12T21:02:12.699Z,101.50
2022-08-12T21:12:28.695Z,104.27
2022-08-12T21:22:38.548Z,100.80
2022-08-12T21:32:43.488Z,99.63
2022-08-12T21:42:51.149Z,104.87
2022-08-12T21:52:57.711Z,100.60
2022-08-12T22:03:15.225Z,100.50
2022-08-12T22:14:07.632Z,103.47
2022-08-12T22:23:52.081Z,104.57
2022-08-12T22:34:10.485Z,100.87
2022-08-12T22:44:52.904Z,101.03
2022-08-12T22:55:04.151Z,99.27
2022-08-12T23:05:10.496Z,101.27
2022-08-12T23:15:15.607Z,101.90
2022-08-12T23:25:21.297Z,99.93
2022-08-12T23:35:28.443Z,103.20
2022-08-12T23:46:01.013Z,106.10
2022-08-12T23:56:06.561Z,103.03
